createdAt,value
2023-02-14T00:01:12.354Z,2.08
2023-02-14T00:06:15.980Z,2.00
2023-02-14T00:11:18.928Z,1.98
2023-02-14T00:16:21.939Z,2.00
2023-02-14T00:21:24.939Z,2.07
2023-02-14T00:26:28.431Z,2.18
2023-02-14T00:31:31.661Z,2.26
2023-02-14T00:36:35.846Z,2.34
2023-02-14T00:41:40.164Z,2.31
2023-02-14T00:46:44.302Z,2.26
2023-02-14T00:51:47.293Z,2.22
2023-02-14T00:56:50.299Z,2.21
2023-02-14T01:01:53.326Z,2.25
2023-02-14T01:06:56.305Z,2.23
2023-02-14T01:11:59.073Z,2.19
2023-02-14T01:17:02.043Z,2.09
2023-02-14T01:22:05.055Z,2.07
2023-02-14T01:27:07.809Z,2.05
2023-02-14T01:32:10.861Z,2.05
2023-02-14T01:37:14.447Z,2.06
2023-02-14T01:42:17.458Z,2.02
2023-02-14T01:47:20.346Z,1.93
2023-02-14T01:52:41.479Z,1.79
2023-02-14T01:57:54.647Z,1.60
2023-02-14T02:03:00.095Z,1.34
2023-02-14T02:08:03.401Z,1.04
2023-02-14T02:13:09.505Z,0.70
2023-02-14T02:18:46.351Z,0.49
2023-02-14T02:24:48.744Z,0.31
2023-02-14T02:30:12.741Z,0.15
2023-02-14T02:35:46.123Z,0.00
2023-02-14T02:41:08.708Z,0.01
2023-02-14T02:46:48.417Z,0.16
2023-02-14T02:52:15.701Z,0.22
2023-02-14T02:57:28.404Z,0.18
2023-02-14T03:02:58.547Z,0.01
2023-02-14T03:08:01.535Z,-0.19
2023-02-14T03:13:32.115Z,-0.29
2023-02-14T03:19:13.060Z,-0.06
2023-02-14T03:24:52.561Z,0.11
2023-02-14T03:30:13.544Z,0.17
2023-02-14T03:35:47.305Z,0.20
2023-02-14T03:40:58.936Z,0.10
2023-02-14T03:46:14.928Z,-0.04
2023-02-14T03:51:21.288Z,-0.15
2023-02-14T03:56:45.623Z,-0.30
2023-02-14T04:02:15.562Z,-0.48
2023-02-14T04:07:23.144Z,-0.59
2023-02-14T04:12:37.196Z,-0.74
2023-02-14T04:17:59.448Z,-0.89
2023-02-14T04:23:03.666Z,-1.01
2023-02-14T04:28:06.516Z,-1.15
2023-02-14T04:33:10.727Z,-1.20
2023-02-14T04:38:13.825Z,-1.27
2023-02-14T04:43:16.960Z,-1.38
2023-02-14T04:48:19.899Z,-1.51
2023-02-14T04:53:23.316Z,-1.55
2023-02-14T04:58:26.395Z,-1.65
2023-02-14T05:03:29.174Z,-1.70
2023-02-14T05:08:32.121Z,-1.79
2023-02-14T05:13:34.903Z,-1.84
2023-02-14T05:18:37.940Z,-1.88
2023-02-14T05:23:41.390Z,-1.91
2023-02-14T05:28:44.463Z,-1.99
2023-02-14T05:33:47.368Z,-2.08
2023-02-14T05:38:50.402Z,-2.10
2023-02-14T05:43:53.485Z,-2.14
2023-02-14T05:48:56.617Z,-2.20
2023-02-14T05:54:01.159Z,-2.23
2023-02-14T05:59:04.570Z,-2.23
2023-02-14T06:04:07.646Z,-2.23
2023-02-14T06:09:10.679Z,-2.28
2023-02-14T06:14:13.621Z,-2.24
2023-02-14T06:19:16.451Z,-2.10
2023-02-14T06:24:19.250Z,-1.98
2023-02-14T06:29:22.917Z,-1.85
2023-02-14T06:34:25.728Z,-1.77
2023-02-14T06:39:28.512Z,-1.59
2023-02-14T06:44:31.700Z,-1.38
2023-02-14T06:49:34.922Z,-1.31
2023-02-14T06:54:37.878Z,-1.23
2023-02-14T06:59:40.771Z,-1.12
2023-02-14T07:04:43.528Z,-0.98
2023-02-14T07:09:46.554Z,-0.78
2023-02-14T07:14:49.525Z,-0.51
2023-02-14T07:19:52.703Z,-0.20
2023-02-14T07:24:56.049Z,0.15
2023-02-14T07:29:59.190Z,0.45
2023-02-14T07:35:02.127Z,1.27
2023-02-14T07:40:14.324Z,2.90
2023-02-14T07:45:22.193Z,4.37
2023-02-14T07:50:25.369Z,5.60
2023-02-14T07:55:28.378Z,6.49
2023-02-14T08:00:31.962Z,7.16
2023-02-14T08:05:36.090Z,7.71
2023-02-14T08:10:39.021Z,7.68
2023-02-14T08:16:00.227Z,7.50
2023-02-14T08:21:04.782Z,7.56
2023-02-14T08:26:07.947Z,7.95
2023-02-14T08:31:11.745Z,8.27
2023-02-14T08:36:14.882Z,8.50
2023-02-14T08:41:18.875Z,8.80
2023-02-14T08:46:21.885Z,8.84
2023-02-14T08:51:26.096Z,8.93
2023-02-14T08:56:29.158Z,9.05
2023-02-14T09:01:32.264Z,8.94
2023-02-14T09:06:39.210Z,9.21
2023-02-14T09:11:42.232Z,9.50
2023-02-14T09:16:45.229Z,9.68
2023-02-14T09:21:48.272Z,9.57
2023-02-14T09:26:52.074Z,9.84
2023-02-14T09:31:57.222Z,10.24
2023-02-14T09:37:00.209Z,10.55
2023-02-14T09:42:15.074Z,11.05
2023-02-14T09:47:34.169Z,11.03
2023-02-14T09:52:37.125Z,11.22
2023-02-14T09:58:17.676Z,11.37
2023-02-14T10:03:35.277Z,11.70
2023-02-14T10:08:44.129Z,12.00
2023-02-14T10:14:12.847Z,11.52
2023-02-14T10:19:26.263Z,11.04
2023-02-14T10:24:40.367Z,11.28
2023-02-14T10:29:43.485Z,11.66
2023-02-14T10:34:51.787Z,11.96
2023-02-14T10:40:26.815Z,12.10
2023-02-14T10:46:18.306Z,12.29
2023-02-14T10:51:44.692Z,12.86
2023-02-14T10:57:01.119Z,13.37
2023-02-14T11:02:06.172Z,13.51
2023-02-14T11:07:19.687Z,13.69
2023-02-14T11:12:39.708Z,13.81
2023-02-14T11:17:43.267Z,13.97
2023-02-14T11:22:46.636Z,13.83
2023-02-14T11:28:16.049Z,13.92
2023-02-14T11:33:37.995Z,13.73
2023-02-14T11:38:44.017Z,13.36
2023-02-14T11:43:52.254Z,13.46
2023-02-14T11:49:00.320Z,13.01
2023-02-14T11:54:09.961Z,12.75
2023-02-14T11:59:26.735Z,12.36
2023-02-14T12:04:46.611Z,11.85
2023-02-14T12:10:31.953Z,11.09
2023-02-14T12:15:44.678Z,10.48
2023-02-14T12:20:53.446Z,9.99
2023-02-14T12:26:10.850Z,9.65
2023-02-14T12:31:14.774Z,9.33
2023-02-14T12:36:41.126Z,9.15
2023-02-14T12:42:04.865Z,9.00
2023-02-14T12:47:46.734Z,8.98
2023-02-14T12:52:55.585Z,9.06
2023-02-14T12:58:24.621Z,9.04
2023-02-14T13:03:57.705Z,8.96
2023-02-14T13:09:25.307Z,8.87
2023-02-14T13:15:03.582Z,8.79
2023-02-14T13:20:40.361Z,8.72
2023-02-14T13:25:59.565Z,8.62
2023-02-14T13:31:03.759Z,8.64
2023-02-14T13:36:11.066Z,8.62
2023-02-14T13:41:16.503Z,8.47
2023-02-14T13:46:35.203Z,8.30
2023-02-14T13:51:54.312Z,8.12
2023-02-14T13:57:09.376Z,8.00
2023-02-14T14:02:43.352Z,7.93
2023-02-14T14:07:46.824Z,7.95
2023-02-14T14:12:52.093Z,7.98
2023-02-14T14:18:13.372Z,8.01
2023-02-14T14:23:37.242Z,8.02
2023-02-14T14:28:40.235Z,8.06
2023-02-14T14:33:43.242Z,8.05
2023-02-14T14:38:51.078Z,8.03
2023-02-14T14:43:55.300Z,8.03
2023-02-14T14:48:58.859Z,7.99
2023-02-14T14:54:13.817Z,7.92
2023-02-14T14:59:25.496Z,7.85
2023-02-14T15:04:35.337Z,7.76
2023-02-14T15:09:40.148Z,7.65
2023-02-14T15:14:51.339Z,7.51
2023-02-14T15:20:03.948Z,7.34
2023-02-14T15:25:35.943Z,7.12
2023-02-14T15:30:40.858Z,6.88
2023-02-14T15:35:44.106Z,6.64
2023-02-14T15:40:47.112Z,6.40
2023-02-14T15:45:56.573Z,6.18
2023-02-14T15:51:02.369Z,5.95
2023-02-14T15:56:29.405Z,5.79
2023-02-14T16:01:35.916Z,5.58
2023-02-14T16:06:44.834Z,5.41
2023-02-14T16:11:48.741Z,5.18
2023-02-14T16:17:00.932Z,5.01
2023-02-14T16:22:04.964Z,4.83
2023-02-14T16:27:08.898Z,4.67
2023-02-14T16:32:24.637Z,4.49
2023-02-14T16:37:33.426Z,4.33
2023-02-14T16:42:38.839Z,4.22
2023-02-14T16:47:41.745Z,4.07
2023-02-14T16:52:47.716Z,3.93
2023-02-14T16:57:51.900Z,3.86
2023-02-14T17:03:06.377Z,3.84
2023-02-14T17:08:13.279Z,3.73
2023-02-14T17:13:24.063Z,3.55
2023-02-14T17:18:28.128Z,3.30
2023-02-14T17:23:31.321Z,3.20
2023-02-14T17:28:34.373Z,3.25
2023-02-14T17:33:37.499Z,3.25
2023-02-14T17:38:43.496Z,3.18
2023-02-14T17:43:46.958Z,3.09
2023-02-14T17:48:50.203Z,2.92
2023-02-14T17:53:53.036Z,2.84
2023-02-14T17:58:56.402Z,2.73
2023-02-14T18:03:59.373Z,2.68
2023-02-14T18:09:08.459Z,2.65
2023-02-14T18:14:26.020Z,2.76
2023-02-14T18:19:29.655Z,2.85
2023-02-14T18:24:35.838Z,2.83
2023-02-14T18:29:39.420Z,2.69
2023-02-14T18:34:42.496Z,2.50
2023-02-14T18:39:45.844Z,2.32
2023-02-14T18:44:48.954Z,2.07
2023-02-14T18:49:54.706Z,1.85
2023-02-14T18:54:59.452Z,1.63
2023-02-14T19:00:06.932Z,1.40
2023-02-14T19:05:10.882Z,1.31
2023-02-14T19:10:14.015Z,1.27
2023-02-14T19:15:19.144Z,1.22
2023-02-14T19:20:22.396Z,1.15
2023-02-14T19:25:26.642Z,1.10
2023-02-14T19:30:29.890Z,1.00
2023-02-14T19:35:33.020Z,0.96
2023-02-14T19:40:35.847Z,0.98
2023-02-14T19:45:39.040Z,0.97
2023-02-14T19:50:42.038Z,0.89
2023-02-14T19:55:46.306Z,0.81
2023-02-14T20:01:01.989Z,0.67
2023-02-14T20:06:05.441Z,0.58
2023-02-14T20:11:46.624Z,0.40
2023-02-14T20:16:50.990Z,0.20
2023-02-14T20:21:55.389Z,0.00
2023-02-14T20:27:00.611Z,-0.12
2023-02-14T20:32:05.026Z,-0.16
2023-02-14T20:37:08.093Z,-0.19
2023-02-14T20:42:11.324Z,-0.24
2023-02-14T20:47:14.237Z,-0.33
2023-02-14T20:52:18.809Z,-0.42
2023-02-14T20:57:21.643Z,-0.50
2023-02-14T21:02:24.820Z,-0.67
2023-02-14T21:07:30.824Z,-0.81
2023-02-14T21:12:33.662Z,-0.92
2023-02-14T21:17:37.410Z,-1.01
2023-02-14T21:22:40.921Z,-1.10
2023-02-14T21:27:44.005Z,-1.14
2023-02-14T21:32:47.010Z,-1.16
2023-02-14T21:37:50.067Z,-1.17
2023-02-14T21:42:53.077Z,-1.16
2023-02-14T21:48:14.242Z,-1.18
2023-02-14T21:53:17.276Z,-1.21
2023-02-14T21:58:20.100Z,-1.17
2023-02-14T22:03:23.401Z,-1.16
2023-02-14T22:08:26.401Z,-1.18
2023-02-14T22:13:29.196Z,-1.24
2023-02-14T22:18:32.806Z,-1.31
2023-02-14T22:23:36.619Z,-1.43
2023-02-14T22:28:41.083Z,-1.53
2023-02-14T22:33:44.953Z,-1.62
2023-02-14T22:38:48.013Z,-1.69
2023-02-14T22:43:53.134Z,-1.74
2023-02-14T22:48:57.644Z,-1.84
2023-02-14T22:54:12.411Z,-1.92
2023-02-14T22:59:21.484Z,-1.92
2023-02-14T23:04:29.489Z,-1.93
2023-02-14T23:09:32.408Z,-1.91
2023-02-14T23:15:10.988Z,-1.92
2023-02-14T23:20:32.351Z,-1.97
2023-02-14T23:25:35.233Z,-2.03
2023-02-14T23:30:38.135Z,-2.12
2023-02-14T23:35:41.146Z,-2.19
2023-02-14T23:41:02.651Z,-2.28
2023-02-14T23:46:05.760Z,-2.31
2023-02-14T23:51:08.686Z,-2.38
2023-02-14T23:56:11.628Z,-2.42
